createdAt,value
2022-08-19T00:02:04.253Z,29.75
2022-08-19T00:04:37.326Z,28.63
2022-08-19T00:07:07.614Z,27.73
2022-08-19T00:09:37.348Z,29.85
2022-08-19T00:12:06.253Z,26.45
2022-08-19T00:14:34.628Z,30.67
2022-08-19T00:17:04.011Z,32.42
2022-08-19T00:19:32.927Z,27.13
2022-08-19T00:22:01.342Z,28.38
2022-08-19T00:24:29.738Z,25.73
2022-08-19T00:27:24.986Z,26.13
2022-08-19T00:29:52.782Z,25.13
2022-08-19T00:32:21.451Z,27.10
2022-08-19T00:34:50.076Z,25.17
2022-08-19T00:37:23.633Z,25.10
2022-08-19T00:39:54.153Z,25.13
2022-08-19T00:42:25.098Z,26.60
2022-08-19T00:44:53.420Z,28.55
2022-08-19T00:47:21.721Z,25.65
2022-08-19T00:49:52.631Z,26.98
2022-08-19T00:52:30.121Z,26.90
2022-08-19T00:54:59.485Z,26.10
2022-08-19T00:57:37.767Z,27.42
2022-08-19T01:00:11.139Z,26.23
2022-08-19T01:02:42.792Z,27.35
2022-08-19T01:05:16.073Z,28.55
2022-08-19T01:07:44.910Z,26.08
2022-08-19T01:10:16.512Z,28.02
2022-08-19T01:12:46.642Z,27.70
2022-08-19T01:15:18.401Z,28.55
2022-08-19T01:17:49.706Z,27.88
2022-08-19T01:20:22.272Z,31.73
2022-08-19T01:22:56.595Z,27.13
2022-08-19T01:25:28.326Z,28.45
2022-08-19T01:28:03.071Z,29.85
2022-08-19T01:30:39.648Z,28.33
2022-08-19T01:33:12.899Z,29.27
2022-08-19T01:35:41.972Z,27.75
2022-08-19T01:38:22.551Z,28.73
2022-08-19T01:40:50.902Z,29.30
2022-08-19T01:43:20.110Z,29.70
2022-08-19T01:45:48.968Z,30.17
2022-08-19T01:48:17.340Z,28.27
2022-08-19T01:50:45.848Z,30.45
2022-08-19T01:53:15.608Z,30.65
2022-08-19T01:55:45.342Z,31.80
2022-08-19T01:58:16.753Z,33.38
2022-08-19T02:03:15.159Z,30.95
2022-08-19T02:05:45.000Z,34.65
2022-08-19T02:08:17.263Z,35.00
2022-08-19T02:10:47.562Z,35.28
2022-08-19T02:13:26.289Z,35.67
2022-08-19T02:15:55.137Z,36.35
2022-08-19T02:18:27.815Z,37.45
2022-08-19T02:20:56.393Z,36.67
2022-08-19T02:23:26.338Z,36.33
2022-08-19T02:25:54.728Z,36.85
2022-08-19T02:28:25.057Z,37.05
2022-08-19T02:30:53.472Z,35.45
2022-08-19T02:33:21.862Z,38.53
2022-08-19T02:35:50.165Z,40.92
2022-08-19T02:38:26.452Z,39.40
2022-08-19T02:40:58.586Z,40.95
2022-08-19T02:43:28.513Z,41.47
2022-08-19T02:45:57.205Z,43.13
2022-08-19T02:48:27.778Z,38.78
2022-08-19T02:50:57.196Z,42.63
2022-08-19T02:53:27.365Z,39.47
2022-08-19T02:55:57.836Z,44.95
2022-08-19T02:58:27.879Z,45.40
2022-08-19T03:00:57.788Z,43.75
2022-08-19T03:03:26.218Z,47.63
2022-08-19T03:06:04.410Z,43.92
2022-08-19T03:08:33.269Z,44.42
2022-08-19T03:11:05.572Z,45.05
2022-08-19T03:13:34.209Z,42.90
2022-08-19T03:16:06.541Z,42.35
2022-08-19T03:18:37.175Z,49.42
2022-08-19T03:21:07.364Z,44.13
2022-08-19T03:23:41.714Z,46.90
2022-08-19T03:26:16.662Z,47.60
2022-08-19T03:28:51.227Z,46.35
2022-08-19T03:31:44.253Z,44.50
2022-08-19T03:34:18.347Z,48.22
2022-08-19T03:36:46.987Z,47.30
2022-08-19T03:39:15.944Z,47.38
2022-08-19T03:41:48.506Z,44.00
2022-08-19T03:44:19.465Z,44.38
2022-08-19T03:46:49.054Z,42.25
2022-08-19T03:49:18.959Z,43.67
2022-08-19T03:51:49.457Z,44.37
2022-08-19T03:54:19.827Z,43.67
2022-08-19T03:56:51.354Z,44.92
2022-08-19T03:59:26.950Z,50.17
2022-08-19T04:01:56.522Z,47.25
2022-08-19T04:04:25.534Z,48.55
2022-08-19T04:06:58.192Z,48.15
2022-08-19T04:09:28.736Z,52.03
2022-08-19T04:11:59.653Z,59.45
2022-08-19T04:14:31.267Z,51.33
2022-08-19T04:17:00.600Z,49.55
2022-08-19T04:19:32.563Z,49.47
2022-08-19T04:22:01.252Z,46.13
2022-08-19T04:24:31.921Z,48.35
2022-08-19T04:27:03.753Z,47.03
2022-08-19T04:29:32.537Z,51.10
2022-08-19T04:32:08.730Z,52.35
2022-08-19T04:35:02.040Z,50.08
2022-08-19T04:37:34.899Z,49.63
2022-08-19T04:40:23.002Z,53.42
2022-08-19T04:42:53.019Z,47.22
2022-08-19T04:45:22.780Z,51.40
2022-08-19T04:47:58.875Z,49.08
2022-08-19T04:50:43.302Z,54.20
2022-08-19T04:53:11.999Z,53.10
2022-08-19T04:55:44.675Z,55.72
2022-08-19T04:58:17.551Z,50.20
2022-08-19T05:00:45.954Z,45.60
2022-08-19T05:03:16.726Z,52.33
2022-08-19T05:05:46.335Z,54.03
2022-08-19T05:08:15.207Z,53.47
2022-08-19T05:10:43.879Z,54.83
2022-08-19T05:13:13.604Z,53.72
2022-08-19T05:15:44.309Z,54.90
2022-08-19T05:18:30.334Z,55.65
2022-08-19T05:21:15.710Z,56.75
2022-08-19T05:23:45.712Z,55.92
2022-08-19T05:26:14.028Z,55.25
2022-08-19T05:28:46.365Z,48.13
2022-08-19T05:31:14.860Z,46.38
2022-08-19T05:33:43.257Z,48.50
2022-08-19T05:36:11.879Z,47.15
2022-08-19T05:38:40.159Z,54.03
2022-08-19T05:41:11.747Z,51.87
2022-08-19T05:43:40.205Z,51.13
2022-08-19T05:46:10.723Z,47.92
2022-08-19T05:48:40.661Z,49.30
2022-08-19T05:51:09.911Z,45.80
2022-08-19T05:53:38.291Z,47.30
2022-08-19T05:56:07.893Z,56.83
2022-08-19T05:58:39.614Z,54.75
2022-08-19T06:01:14.733Z,45.72
2022-08-19T06:03:43.220Z,46.10
2022-08-19T06:06:13.421Z,47.00
2022-08-19T06:08:43.838Z,50.85
2022-08-19T06:11:19.952Z,52.60
2022-08-19T06:13:59.676Z,52.10
2022-08-19T06:16:32.741Z,48.83
2022-08-19T06:19:07.499Z,52.78
2022-08-19T06:21:38.210Z,57.30
2022-08-19T06:24:08.451Z,51.22
2022-08-19T06:26:37.927Z,52.33
2022-08-19T06:29:07.350Z,53.92
2022-08-19T06:31:38.266Z,55.03
2022-08-19T06:34:08.773Z,52.28
2022-08-19T06:36:41.653Z,47.53
2022-08-19T06:39:15.214Z,50.30
2022-08-19T06:41:50.637Z,46.58
2022-08-19T06:44:25.810Z,58.80
2022-08-19T06:46:56.424Z,58.70
2022-08-19T06:49:26.135Z,53.10
2022-08-19T06:51:54.479Z,47.95
2022-08-19T06:54:23.724Z,46.78
2022-08-19T06:56:51.943Z,46.53
2022-08-19T06:59:28.135Z,67.18
2022-08-19T07:02:01.069Z,85.60
2022-08-19T07:04:32.661Z,73.80
2022-08-19T07:07:20.291Z,53.45
2022-08-19T07:09:59.206Z,45.22
2022-08-19T07:12:35.680Z,55.58
2022-08-19T07:15:05.376Z,52.15
2022-08-19T07:17:36.547Z,50.88
2022-08-19T07:20:09.606Z,50.53
2022-08-19T07:22:38.932Z,49.20
2022-08-19T07:25:09.778Z,49.70
2022-08-19T07:27:39.599Z,46.75
2022-08-19T07:30:11.626Z,43.10
2022-08-19T07:32:42.033Z,47.38
2022-08-19T07:35:11.579Z,49.00
2022-08-19T07:37:45.078Z,48.70
2022-08-19T07:40:13.932Z,56.00
2022-08-19T07:42:42.343Z,54.40
2022-08-19T07:45:12.930Z,91.33
2022-08-19T07:47:58.449Z,82.88
2022-08-19T07:50:27.259Z,61.95
2022-08-19T07:52:55.615Z,57.47
2022-08-19T07:55:42.404Z,50.90
2022-08-19T07:58:14.044Z,49.53
2022-08-19T08:00:42.875Z,50.47
2022-08-19T08:03:16.159Z,54.13
2022-08-19T08:06:02.192Z,47.80
2022-08-19T08:08:48.633Z,49.72
2022-08-19T08:11:19.898Z,52.00
2022-08-19T08:16:39.384Z,46.83
2022-08-19T08:19:20.356Z,46.50
2022-08-19T08:21:55.018Z,52.47
2022-08-19T08:24:23.661Z,45.97
2022-08-19T08:26:57.582Z,50.17
2022-08-19T08:29:26.773Z,44.35
2022-08-19T08:32:03.242Z,50.25
2022-08-19T08:34:32.944Z,54.58
2022-08-19T08:37:04.612Z,49.47
2022-08-19T08:39:33.171Z,48.13
2022-08-19T08:42:17.753Z,86.07
2022-08-19T08:47:25.237Z,51.83
2022-08-19T08:50:01.612Z,44.60
2022-08-19T08:52:36.298Z,47.42
2022-08-19T08:55:10.773Z,54.83
2022-08-19T08:57:45.857Z,50.85
2022-08-19T09:00:20.730Z,49.38
2022-08-19T09:02:50.865Z,50.25
2022-08-19T09:05:26.136Z,47.05
2022-08-19T09:08:01.513Z,45.22
2022-08-19T09:10:44.214Z,61.47
2022-08-19T09:13:24.300Z,63.50
2022-08-19T09:15:58.420Z,52.85
2022-08-19T09:18:26.767Z,46.90
2022-08-19T09:21:01.707Z,57.35
2022-08-19T09:23:30.082Z,51.97
2022-08-19T09:25:58.538Z,46.40
2022-08-19T09:28:26.994Z,51.65
2022-08-19T09:30:55.768Z,48.55
2022-08-19T09:33:24.193Z,48.45
2022-08-19T09:35:53.559Z,48.33
2022-08-19T09:38:23.932Z,47.15
2022-08-19T09:40:52.227Z,49.67
2022-08-19T09:43:27.780Z,54.50
2022-08-19T09:46:06.445Z,50.90
2022-08-19T09:48:34.958Z,52.33
2022-08-19T09:51:12.058Z,52.72
2022-08-19T09:53:41.963Z,50.45
2022-08-19T09:56:11.701Z,47.33
2022-08-19T09:58:42.368Z,49.60
2022-08-19T10:01:11.421Z,46.55
2022-08-19T10:03:39.793Z,48.58
2022-08-19T10:06:15.193Z,48.97
2022-08-19T10:08:50.066Z,42.35
2022-08-19T10:11:28.639Z,46.08
2022-08-19T10:14:07.829Z,56.75
2022-08-19T10:21:36.622Z,42.33
2022-08-19T10:24:09.375Z,44.55
2022-08-19T10:26:43.063Z,44.25
2022-08-19T10:29:12.943Z,47.00
2022-08-19T10:32:02.315Z,41.35
2022-08-19T10:34:30.371Z,43.10
2022-08-19T10:37:01.921Z,42.55
2022-08-19T10:39:43.445Z,39.88
2022-08-19T10:42:14.171Z,43.65
2022-08-19T10:44:42.845Z,46.42
2022-08-19T10:47:11.447Z,42.60
2022-08-19T10:50:11.972Z,40.97
2022-08-19T10:52:49.673Z,51.65
2022-08-19T10:55:39.677Z,46.00
2022-08-19T10:58:14.275Z,39.17
2022-08-19T11:00:44.091Z,36.70
2022-08-19T11:03:12.880Z,57.53
2022-08-19T11:05:43.655Z,62.50
2022-08-19T11:08:22.982Z,76.03
2022-08-19T11:10:56.353Z,48.00
2022-08-19T11:13:25.707Z,43.67
2022-08-19T11:16:07.073Z,42.13
2022-08-19T11:18:39.092Z,42.40
2022-08-19T11:21:09.499Z,48.35
2022-08-19T11:23:40.101Z,42.88
2022-08-19T11:26:12.618Z,43.20
2022-08-19T11:28:41.623Z,43.88
2022-08-19T11:31:13.075Z,46.17
2022-08-19T11:33:41.495Z,42.83
2022-08-19T11:36:15.889Z,41.03
2022-08-19T11:38:44.451Z,40.30
2022-08-19T11:41:14.232Z,43.67
2022-08-19T11:43:42.581Z,39.28
2022-08-19T11:46:12.841Z,42.28
2022-08-19T11:48:44.001Z,44.97
2022-08-19T11:51:14.238Z,41.03
2022-08-19T11:53:42.843Z,40.28
2022-08-19T11:56:13.670Z,42.38
2022-08-19T11:58:43.224Z,48.53
2022-08-19T12:01:12.783Z,40.88
2022-08-19T12:03:41.752Z,35.03
2022-08-19T12:06:13.944Z,34.63
2022-08-19T12:08:42.590Z,33.97
2022-08-19T12:11:14.730Z,35.63
2022-08-19T12:13:45.323Z,38.03
2022-08-19T12:16:16.478Z,39.53
2022-08-19T12:18:47.494Z,40.13
2022-08-19T12:21:22.211Z,41.28
2022-08-19T12:23:55.760Z,39.83
2022-08-19T12:28:53.981Z,38.70
2022-08-19T12:31:22.458Z,37.97
2022-08-19T12:33:50.799Z,34.33
2022-08-19T12:36:19.684Z,37.33
2022-08-19T12:38:50.293Z,33.45
2022-08-19T12:41:22.279Z,35.92
2022-08-19T12:43:52.301Z,34.92
2022-08-19T12:46:22.641Z,35.47
2022-08-19T12:48:56.108Z,35.17
2022-08-19T12:51:25.659Z,30.60
2022-08-19T12:53:54.048Z,32.10
2022-08-19T12:56:24.803Z,31.67
2022-08-19T12:58:54.892Z,30.45
2022-08-19T13:01:25.907Z,28.70
2022-08-19T13:03:54.584Z,27.83
2022-08-19T13:06:23.739Z,29.83
2022-08-19T13:08:54.532Z,26.70
2022-08-19T13:11:26.529Z,27.70
2022-08-19T13:13:57.159Z,31.42
2022-08-19T13:16:25.604Z,46.22
2022-08-19T13:18:53.988Z,29.80
2022-08-19T13:21:27.499Z,27.45
2022-08-19T13:23:56.446Z,28.33
2022-08-19T13:26:25.183Z,28.50
2022-08-19T13:29:11.294Z,26.10
2022-08-19T13:32:00.594Z,26.63
2022-08-19T13:34:32.323Z,26.90
2022-08-19T13:37:01.211Z,24.52
2022-08-19T13:39:33.374Z,24.83
2022-08-19T13:42:02.678Z,23.38
2022-08-19T13:44:31.798Z,24.30
2022-08-19T13:47:06.699Z,25.17
2022-08-19T13:49:36.914Z,25.48
2022-08-19T13:52:08.264Z,25.33
2022-08-19T13:54:36.724Z,25.08
2022-08-19T13:57:07.335Z,24.00
2022-08-19T13:59:37.755Z,21.53
2022-08-19T14:02:09.790Z,22.80
2022-08-19T14:04:38.346Z,24.30
2022-08-19T14:07:06.883Z,24.63
2022-08-19T14:09:35.264Z,22.58
2022-08-19T14:12:06.376Z,23.05
2022-08-19T14:14:38.127Z,25.15
2022-08-19T14:17:10.476Z,25.60
2022-08-19T14:19:41.802Z,23.35
2022-08-19T14:22:22.041Z,32.35
2022-08-19T14:24:51.189Z,25.67
2022-08-19T14:27:19.651Z,25.95
2022-08-19T14:29:48.856Z,23.58
2022-08-19T14:32:18.585Z,24.35
2022-08-19T14:34:47.672Z,25.15
2022-08-19T14:37:16.309Z,23.90
2022-08-19T14:39:45.764Z,25.15
2022-08-19T14:42:15.539Z,22.88
2022-08-19T14:44:44.680Z,23.23
2022-08-19T14:47:13.054Z,22.45
2022-08-19T14:49:48.020Z,25.70
2022-08-19T14:52:17.046Z,27.48
2022-08-19T14:54:45.481Z,24.02
2022-08-19T14:57:16.889Z,23.63
2022-08-19T14:59:45.909Z,31.02
2022-08-19T15:02:33.519Z,23.30
2022-08-19T15:05:04.155Z,22.58
2022-08-19T15:07:32.513Z,28.02
2022-08-19T15:10:01.098Z,25.00
2022-08-19T15:12:29.381Z,28.05
2022-08-19T15:15:00.457Z,27.90
2022-08-19T15:17:32.451Z,22.83
2022-08-19T15:20:21.371Z,26.77
2022-08-19T15:22:49.906Z,29.33
2022-08-19T15:25:21.288Z,27.20
2022-08-19T15:30:23.773Z,23.92
2022-08-19T15:32:53.517Z,29.75
2022-08-19T15:35:24.431Z,30.20
2022-08-19T15:37:53.991Z,30.48
2022-08-19T15:40:27.042Z,29.92
2022-08-19T15:42:55.809Z,29.17
2022-08-19T15:45:32.173Z,27.63
2022-08-19T15:48:00.956Z,28.83
2022-08-19T15:50:32.175Z,28.85
2022-08-19T15:53:02.559Z,30.30
2022-08-19T15:55:35.446Z,33.03
2022-08-19T15:58:28.620Z,36.65
2022-08-19T16:01:15.973Z,33.22
2022-08-19T16:04:02.035Z,28.17
2022-08-19T16:06:32.992Z,29.95
2022-08-19T16:09:05.409Z,30.45
2022-08-19T16:11:39.368Z,33.78
2022-08-19T16:14:09.517Z,29.55
2022-08-19T16:16:39.546Z,27.48
2022-08-19T16:19:12.123Z,28.48
2022-08-19T16:21:42.240Z,29.17
2022-08-19T16:24:13.141Z,27.02
2022-08-19T16:26:45.930Z,24.42
2022-08-19T16:29:33.266Z,27.50
2022-08-19T16:32:04.035Z,27.70
2022-08-19T16:34:33.803Z,36.67
2022-08-19T16:37:07.268Z,27.92
2022-08-19T16:39:35.645Z,22.50
2022-08-19T16:44:43.281Z,20.48
2022-08-19T16:47:12.595Z,22.52
2022-08-19T16:49:54.504Z,22.52
2022-08-19T16:52:27.728Z,24.33
2022-08-19T16:54:56.108Z,23.55
2022-08-19T16:57:25.017Z,23.83
2022-08-19T16:59:53.568Z,24.90
2022-08-19T17:02:23.653Z,24.95
2022-08-19T17:04:59.344Z,22.35
2022-08-19T17:07:32.259Z,21.55
2022-08-19T17:10:02.598Z,26.73
2022-08-19T17:12:33.293Z,23.48
2022-08-19T17:15:03.492Z,32.45
2022-08-19T17:17:32.568Z,26.92
2022-08-19T17:20:02.385Z,25.42
2022-08-19T17:22:42.416Z,29.23
2022-08-19T17:25:11.042Z,28.80
2022-08-19T17:27:39.416Z,27.92
2022-08-19T17:30:08.810Z,37.63
2022-08-19T17:32:37.224Z,25.75
2022-08-19T17:35:06.419Z,46.20
2022-08-19T17:37:35.076Z,27.48
2022-08-19T17:40:09.634Z,28.15
2022-08-19T17:42:41.669Z,29.73
2022-08-19T17:45:11.481Z,29.23
2022-08-19T17:50:12.859Z,37.40
2022-08-19T17:52:42.162Z,32.80
2022-08-19T17:55:12.427Z,35.92
2022-08-19T17:57:46.090Z,40.10
2022-08-19T18:00:16.003Z,35.58
2022-08-19T18:02:47.962Z,28.48
2022-08-19T18:05:18.927Z,31.60
2022-08-19T18:07:47.934Z,28.85
2022-08-19T18:10:20.102Z,47.78
2022-08-19T18:12:48.837Z,55.13
2022-08-19T18:15:20.118Z,31.10
2022-08-19T18:17:51.778Z,27.33
2022-08-19T18:20:20.410Z,28.10
2022-08-19T18:22:50.400Z,29.30
2022-08-19T18:25:24.294Z,32.60
2022-08-19T18:27:53.652Z,27.38
2022-08-19T18:30:22.795Z,25.83
2022-08-19T18:32:52.889Z,27.75
2022-08-19T18:35:29.755Z,30.02
2022-08-19T18:37:59.072Z,27.60
2022-08-19T18:40:47.699Z,28.73
2022-08-19T18:43:33.828Z,27.00
2022-08-19T18:46:27.802Z,24.83
2022-08-19T18:49:08.090Z,25.90
2022-08-19T18:51:36.458Z,25.02
2022-08-19T18:54:05.388Z,26.40
2022-08-19T18:56:37.555Z,25.25
2022-08-19T18:59:05.904Z,25.05
2022-08-19T19:01:39.403Z,25.15
2022-08-19T19:04:10.675Z,22.65
2022-08-19T19:06:42.848Z,25.25
2022-08-19T19:09:13.058Z,24.75
2022-08-19T19:11:45.161Z,28.75
2022-08-19T19:14:32.770Z,31.92
2022-08-19T19:19:36.146Z,27.88
2022-08-19T19:22:05.573Z,28.25
2022-08-19T19:24:37.438Z,24.90
2022-08-19T19:27:08.493Z,26.77
2022-08-19T19:29:38.119Z,21.15
2022-08-19T19:32:08.216Z,24.00
2022-08-19T19:34:38.900Z,22.75
2022-08-19T19:37:07.294Z,24.25
2022-08-19T19:39:45.724Z,22.63
2022-08-19T19:42:21.289Z,23.90
2022-08-19T19:44:51.387Z,25.52
2022-08-19T19:47:24.663Z,25.30
2022-08-19T19:50:13.746Z,25.00
2022-08-19T19:52:43.376Z,23.90
2022-08-19T19:55:18.202Z,23.55
2022-08-19T19:57:50.868Z,22.50
2022-08-19T20:00:22.049Z,22.40
2022-08-19T20:02:51.128Z,20.75
2022-08-19T20:05:21.716Z,22.13
2022-08-19T20:08:08.576Z,23.55
2022-08-19T20:10:37.051Z,80.00
2022-08-19T20:13:10.407Z,105.67
2022-08-19T20:15:42.583Z,47.28
2022-08-19T20:18:12.095Z,33.90
2022-08-19T20:20:41.193Z,25.70
2022-08-19T20:23:09.746Z,26.88
2022-08-19T20:25:39.750Z,26.85
2022-08-19T20:28:12.389Z,24.75
2022-08-19T20:30:46.609Z,24.90
2022-08-19T20:33:16.444Z,25.90
2022-08-19T20:35:47.500Z,23.83
2022-08-19T20:38:16.720Z,27.10
2022-08-19T20:40:45.036Z,28.55
2022-08-19T20:43:17.062Z,30.23
2022-08-19T20:45:45.415Z,30.33
2022-08-19T20:48:16.195Z,25.55
2022-08-19T20:50:44.871Z,28.85
2022-08-19T20:53:15.203Z,29.42
2022-08-19T20:55:47.021Z,27.00
2022-08-19T20:58:18.741Z,29.23
2022-08-19T21:00:48.157Z,29.17
2022-08-19T21:03:19.752Z,26.88
2022-08-19T21:08:19.352Z,36.25
2022-08-19T21:10:48.791Z,29.20
2022-08-19T21:13:18.949Z,30.90
2022-08-19T21:15:47.947Z,28.58
2022-08-19T21:18:18.302Z,29.80
2022-08-19T21:20:47.286Z,31.25
2022-08-19T21:23:18.304Z,28.90
2022-08-19T21:25:54.295Z,29.23
2022-08-19T21:28:34.362Z,27.30
2022-08-19T21:31:06.667Z,29.17
2022-08-19T21:33:35.574Z,27.33
2022-08-19T21:36:06.841Z,30.25
2022-08-19T21:38:35.417Z,34.30
2022-08-19T21:41:06.151Z,34.05
2022-08-19T21:43:36.614Z,31.13
2022-08-19T21:46:05.630Z,36.03
2022-08-19T21:48:34.138Z,40.97
2022-08-19T21:51:02.575Z,35.92
2022-08-19T21:53:31.459Z,35.58
2022-08-19T21:56:02.661Z,34.08
2022-08-19T21:58:31.025Z,33.08
2022-08-19T22:01:01.759Z,32.70
2022-08-19T22:03:31.399Z,33.60
2022-08-19T22:05:59.782Z,34.72
2022-08-19T22:08:28.127Z,33.92
2022-08-19T22:10:59.350Z,37.50
2022-08-19T22:13:27.791Z,34.10
2022-08-19T22:15:56.265Z,37.72
2022-08-19T22:18:26.327Z,38.58
2022-08-19T22:20:56.888Z,36.30
2022-08-19T22:23:25.204Z,35.75
2022-08-19T22:25:53.488Z,35.05
2022-08-19T22:28:27.550Z,38.65
2022-08-19T22:30:56.972Z,38.75
2022-08-19T22:33:27.835Z,34.97
2022-08-19T22:35:56.719Z,35.85
2022-08-19T22:38:25.103Z,35.67
2022-08-19T22:40:56.486Z,38.83
2022-08-19T22:43:26.753Z,37.75
2022-08-19T22:45:56.799Z,37.67
2022-08-19T22:48:29.267Z,37.83
2022-08-19T22:51:15.493Z,39.53
2022-08-19T22:53:46.663Z,43.63
2022-08-19T22:56:17.419Z,39.10
2022-08-19T22:58:47.026Z,39.95
2022-08-19T23:01:27.726Z,42.78
2022-08-19T23:04:04.249Z,41.33
2022-08-19T23:06:33.565Z,42.05
2022-08-19T23:09:04.875Z,42.00
2022-08-19T23:11:39.819Z,47.25
2022-08-19T23:14:12.483Z,46.78
2022-08-19T23:16:41.857Z,44.63
2022-08-19T23:19:12.059Z,47.55
2022-08-19T23:21:44.005Z,46.35
2022-08-19T23:24:12.918Z,47.38
2022-08-19T23:27:03.419Z,55.30
2022-08-19T23:29:49.800Z,54.53
2022-08-19T23:32:19.777Z,48.67
2022-08-19T23:34:50.073Z,56.63
2022-08-19T23:37:18.367Z,57.20
2022-08-19T23:39:46.728Z,53.42
2022-08-19T23:42:15.096Z,57.05
2022-08-19T23:44:52.089Z,52.83
2022-08-19T23:47:22.025Z,58.60
2022-08-19T23:49:54.303Z,57.22
2022-08-19T23:52:22.644Z,58.38
2022-08-19T23:54:51.025Z,52.53
2022-08-19T23:57:21.717Z,53.90
2022-08-19T23:59:50.440Z,54.65
